createdAt,value
2023-01-02T00:00:28.935Z,97506.44
2023-01-02T00:05:31.223Z,97533.94
2023-01-02T00:10:33.676Z,97527.13
2023-01-02T00:15:36.182Z,97511.63
2023-01-02T00:20:40.070Z,97529.72
2023-01-02T00:25:42.566Z,97532.31
2023-01-02T00:30:44.792Z,97529.72
2023-01-02T00:35:47.054Z,97508.13
2023-01-02T00:40:49.191Z,97508.25
2023-01-02T00:45:51.513Z,97501.53
2023-01-02T00:50:53.782Z,97523.78
2023-01-02T00:55:56.314Z,97513.56
2023-01-02T01:00:58.669Z,97549.66
2023-01-02T01:06:07.831Z,97521.28
2023-01-02T01:11:13.120Z,97547.19
2023-01-02T01:16:18.340Z,97522.25
2023-01-02T01:21:21.281Z,97497.28
2023-01-02T01:26:24.252Z,97456.00
2023-01-02T01:31:26.664Z,97491.22
2023-01-02T01:36:28.854Z,97487.81
2023-01-02T01:41:31.792Z,97487.81
2023-01-02T01:46:45.320Z,97482.56
2023-01-02T01:52:06.815Z,97502.25
2023-01-02T01:57:16.300Z,97456.69
2023-01-02T02:02:19.050Z,97458.44
2023-01-02T02:07:21.457Z,97443.84
2023-01-02T02:12:27.967Z,97466.16
2023-01-02T02:17:56.515Z,97456.63
2023-01-02T02:23:17.404Z,97476.44
2023-01-02T02:28:55.962Z,97480.69
2023-01-02T02:34:30.428Z,97466.03
2023-01-02T02:39:43.637Z,97431.75
2023-01-02T02:44:59.477Z,97469.66
2023-01-02T02:50:30.573Z,97437.06
2023-01-02T02:55:39.695Z,97457.72
2023-01-02T03:00:42.046Z,97430.22
2023-01-02T03:06:05.054Z,97432.84
2023-01-02T03:11:07.796Z,97451.75
2023-01-02T03:16:30.400Z,97444.84
2023-01-02T03:21:44.836Z,97465.47
2023-01-02T03:26:52.214Z,97416.53
2023-01-02T03:31:56.801Z,97450.03
2023-01-02T03:37:03.924Z,97465.44
2023-01-02T03:42:14.593Z,97453.41
2023-01-02T03:47:37.020Z,97463.69
2023-01-02T03:52:39.516Z,97467.16
2023-01-02T03:58:06.514Z,97419.06
2023-01-02T04:03:18.030Z,97450.00
2023-01-02T04:08:31.113Z,97421.69
2023-01-02T04:13:38.929Z,97445.72
2023-01-02T04:18:49.454Z,97431.97
2023-01-02T04:24:05.747Z,97461.13
2023-01-02T04:29:08.020Z,97429.34
2023-01-02T04:34:14.081Z,97470.56
2023-01-02T04:39:16.960Z,97475.72
2023-01-02T04:44:19.266Z,97419.91
2023-01-02T04:49:23.037Z,97468.06
2023-01-02T04:54:25.146Z,97448.28
2023-01-02T04:59:27.664Z,97483.59
2023-01-02T05:04:30.066Z,97471.53
2023-01-02T05:09:32.170Z,97476.72
2023-01-02T05:14:34.339Z,97455.25
2023-01-02T05:19:36.632Z,97419.19
2023-01-02T05:24:38.805Z,97481.03
2023-01-02T05:29:43.630Z,97467.28
2023-01-02T05:34:45.782Z,97486.19
2023-01-02T05:39:48.429Z,97489.66
2023-01-02T05:44:51.477Z,97463.88
2023-01-02T05:49:59.773Z,97518.06
2023-01-02T05:55:02.245Z,97496.56
2023-01-02T06:00:05.004Z,97519.78
2023-01-02T06:05:15.076Z,97505.09
2023-01-02T06:10:17.252Z,97528.34
2023-01-02T06:15:19.379Z,97511.13
2023-01-02T06:20:23.025Z,97489.63
2023-01-02T06:25:25.379Z,97494.78
2023-01-02T06:30:27.528Z,97532.59
2023-01-02T06:35:29.667Z,97524.00
2023-01-02T06:40:32.156Z,97526.56
2023-01-02T06:45:35.233Z,97495.59
2023-01-02T06:50:37.789Z,97489.56
2023-01-02T06:55:59.006Z,97526.47
2023-01-02T07:01:23.240Z,97539.28
2023-01-02T07:06:33.855Z,97527.19
2023-01-02T07:11:39.419Z,97505.56
2023-01-02T07:16:41.791Z,97487.38
2023-01-02T07:21:46.646Z,97471.78
2023-01-02T07:26:48.865Z,97545.50
2023-01-02T07:31:51.073Z,97514.34
2023-01-02T07:36:53.387Z,97524.25
2023-01-02T07:41:55.722Z,97477.16
2023-01-02T07:47:01.975Z,97466.97
2023-01-02T07:52:04.792Z,97454.84
2023-01-02T07:57:07.169Z,97438.41
2023-01-02T08:02:11.155Z,97458.38
2023-01-02T08:07:13.359Z,97420.69
2023-01-02T08:12:15.740Z,97439.09
2023-01-02T08:17:17.877Z,97439.50
2023-01-02T08:22:20.117Z,97421.94
2023-01-02T08:27:22.293Z,97433.81
2023-01-02T08:32:25.908Z,97407.78
2023-01-02T08:37:28.101Z,97399.66
2023-01-02T08:42:30.420Z,97406.34
2023-01-02T08:47:32.624Z,97385.25
2023-01-02T08:52:34.881Z,97387.75
2023-01-02T08:57:36.990Z,97386.69
2023-01-02T09:02:39.703Z,97393.66
2023-01-02T09:07:43.459Z,97372.16
2023-01-02T09:12:45.687Z,97364.38
2023-01-02T09:17:47.881Z,97350.63
2023-01-02T09:22:50.022Z,97339.84
2023-01-02T09:27:52.560Z,97334.97
2023-01-02T09:32:54.721Z,97344.59
2023-01-02T09:37:56.990Z,97309.94
2023-01-02T09:43:00.276Z,97320.00
2023-01-02T09:48:02.951Z,97312.41
2023-01-02T09:53:05.162Z,97288.00
2023-01-02T09:58:22.155Z,97291.84
2023-01-02T10:03:36.587Z,97278.63
2023-01-02T10:08:47.486Z,97283.16
2023-01-02T10:14:21.163Z,97270.34
2023-01-02T10:19:29.954Z,97276.91
2023-01-02T10:24:41.294Z,97265.34
2023-01-02T10:30:01.207Z,97243.84
2023-01-02T10:35:06.301Z,97254.13
2023-01-02T10:40:09.045Z,97224.94
2023-01-02T10:45:16.561Z,97239.56
2023-01-02T10:50:23.219Z,97229.28
2023-01-02T10:55:41.264Z,97214.06
2023-01-02T11:00:43.757Z,97223.63
2023-01-02T11:05:52.488Z,97209.19
2023-01-02T11:10:54.674Z,97202.03
2023-01-02T11:15:59.856Z,97201.69
2023-01-02T11:21:05.443Z,97207.38
2023-01-02T11:26:21.578Z,97189.13
2023-01-02T11:31:24.331Z,97192.84
2023-01-02T11:36:27.809Z,97149.06
2023-01-02T11:42:08.110Z,97176.94
2023-01-02T11:47:14.543Z,97171.84
2023-01-02T11:52:21.523Z,97172.09
2023-01-02T11:57:48.992Z,97162.78
2023-01-02T12:02:54.736Z,97159.50
2023-01-02T12:08:06.968Z,97156.81
2023-01-02T12:13:24.105Z,97154.84
2023-01-02T12:18:50.672Z,97162.84
2023-01-02T12:24:30.930Z,97147.41
2023-01-02T12:30:06.933Z,97152.22
2023-01-02T12:35:37.446Z,97142.00
2023-01-02T12:40:45.598Z,97141.91
2023-01-02T12:46:03.027Z,97139.34
2023-01-02T12:51:40.490Z,97128.88
2023-01-02T12:56:51.882Z,97129.34
2023-01-02T13:02:09.486Z,97131.66
2023-01-02T13:07:33.189Z,97146.44
2023-01-02T13:12:37.141Z,97141.03
2023-01-02T13:17:51.779Z,97148.16
2023-01-02T13:23:21.747Z,97151.41
2023-01-02T13:28:24.832Z,97138.72
2023-01-02T13:33:34.621Z,97148.09
2023-01-02T13:38:37.016Z,97142.34
2023-01-02T13:43:39.630Z,97152.63
2023-01-02T13:49:30.867Z,97140.09
2023-01-02T13:54:36.332Z,97153.69
2023-01-02T14:00:16.433Z,97148.19
2023-01-02T14:05:56.024Z,97154.25
2023-01-02T14:11:20.062Z,97163.38
2023-01-02T14:16:50.219Z,97162.59
2023-01-02T14:21:59.048Z,97179.38
2023-01-02T14:27:06.508Z,97177.16
2023-01-02T14:32:37.169Z,97180.03
2023-01-02T14:37:39.504Z,97184.50
2023-01-02T14:43:02.035Z,97162.25
2023-01-02T14:48:11.672Z,97194.75
2023-01-02T14:53:19.825Z,97182.69
2023-01-02T14:58:33.437Z,97191.03
2023-01-02T15:04:03.514Z,97197.53
2023-01-02T15:09:27.306Z,97188.69
2023-01-02T15:14:31.885Z,97193.22
2023-01-02T15:19:35.816Z,97197.16
2023-01-02T15:24:38.679Z,97198.44
2023-01-02T15:29:48.573Z,97191.38
2023-01-02T15:34:51.799Z,97161.59
2023-01-02T15:39:54.201Z,97208.53
2023-01-02T15:45:10.245Z,97212.94
2023-01-02T15:50:24.474Z,97223.69
2023-01-02T15:55:30.974Z,97227.81
2023-01-02T16:00:41.939Z,97236.34
2023-01-02T16:05:56.392Z,97237.28
2023-01-02T16:11:02.520Z,97236.44
2023-01-02T16:16:16.744Z,97215.38
2023-01-02T16:21:20.543Z,97225.41
2023-01-02T16:26:30.876Z,97243.75
2023-01-02T16:31:53.772Z,97238.47
2023-01-02T16:37:24.168Z,97253.06
2023-01-02T16:42:38.070Z,97246.84
2023-01-02T16:47:43.269Z,97245.97
2023-01-02T16:52:47.048Z,97241.19
2023-01-02T16:57:53.901Z,97251.81
2023-01-02T17:02:56.139Z,97241.44
2023-01-02T17:07:58.409Z,97258.91
2023-01-02T17:13:01.144Z,97253.25
2023-01-02T17:18:03.747Z,97254.41
2023-01-02T17:23:06.898Z,97258.44
2023-01-02T17:28:09.696Z,97255.53
2023-01-02T17:33:12.481Z,97250.22
2023-01-02T17:38:15.038Z,97251.03
2023-01-02T17:43:17.108Z,97252.28
2023-01-02T17:48:24.230Z,97253.06
2023-01-02T17:53:27.649Z,97246.06
2023-01-02T17:58:30.250Z,97264.41
2023-01-02T18:03:32.578Z,97250.81
2023-01-02T18:08:34.845Z,97269.44
2023-01-02T18:13:43.026Z,97249.13
2023-01-02T18:18:46.093Z,97255.81
2023-01-02T18:23:50.737Z,97250.03
2023-01-02T18:29:09.038Z,97269.22
2023-01-02T18:34:45.587Z,97258.38
2023-01-02T18:39:42.914Z,97248.31
2023-01-02T18:44:45.314Z,97249.72
2023-01-02T18:49:47.457Z,97230.88
2023-01-02T18:54:59.048Z,97247.56
2023-01-02T19:00:16.144Z,97235.16
2023-01-02T19:05:28.989Z,97252.25
2023-01-02T19:10:40.216Z,97248.56
2023-01-02T19:15:45.258Z,97251.34
2023-01-02T19:20:53.362Z,97246.28
2023-01-02T19:25:58.266Z,97250.81
2023-01-02T19:31:00.654Z,97245.22
2023-01-02T19:36:04.558Z,97241.25
2023-01-02T19:41:07.101Z,97230.06
2023-01-02T19:46:09.533Z,97245.22
2023-01-02T19:51:11.699Z,97228.22
2023-01-02T19:56:15.341Z,97236.88
2023-01-02T20:01:17.705Z,97233.09
2023-01-02T20:06:20.171Z,97250.19
2023-01-02T20:11:42.383Z,97254.66
2023-01-02T20:16:44.695Z,97221.44
2023-01-02T20:21:46.781Z,97254.16
2023-01-02T20:26:48.843Z,97243.06
2023-01-02T20:31:54.433Z,97247.13
2023-01-02T20:36:56.778Z,97250.69
2023-01-02T20:41:59.159Z,97230.03
2023-01-02T20:47:02.025Z,97249.88
2023-01-02T20:52:05.089Z,97240.47
2023-01-02T20:57:07.302Z,97252.88
2023-01-02T21:02:09.685Z,97217.56
2023-01-02T21:07:12.201Z,97239.94
2023-01-02T21:12:32.746Z,97231.44
2023-01-02T21:17:34.820Z,97229.72
2023-01-02T21:22:37.022Z,97245.06
2023-01-02T21:27:39.189Z,97240.75
2023-01-02T21:32:41.448Z,97245.22
2023-01-02T21:37:43.591Z,97250.53
2023-01-02T21:42:45.720Z,97209.50
2023-01-02T21:47:48.485Z,97239.50
2023-01-02T21:52:51.729Z,97230.09
2023-01-02T22:03:17.148Z,97232.88
2023-01-02T22:08:19.611Z,97211.25
2023-01-02T22:13:21.884Z,97229.22
2023-01-02T22:18:24.046Z,97224.00
2023-01-02T22:23:26.137Z,97207.75
2023-01-02T22:28:28.651Z,97220.53
2023-01-02T22:33:30.790Z,97184.41
2023-01-02T22:38:32.916Z,97223.84
2023-01-02T22:43:39.184Z,97204.16
2023-01-02T22:48:42.739Z,97195.00
2023-01-02T22:53:45.193Z,97206.13
2023-01-02T22:58:49.021Z,97194.84
2023-01-02T23:03:51.268Z,97153.75
2023-01-02T23:08:55.160Z,97195.59
2023-01-02T23:13:57.266Z,97176.81
2023-01-02T23:19:15.292Z,97188.81
2023-01-02T23:24:20.641Z,97178.44
2023-01-02T23:29:24.410Z,97179.38
2023-01-02T23:34:28.407Z,97171.53
2023-01-02T23:39:32.327Z,97139.22
2023-01-02T23:44:35.452Z,97137.53
2023-01-02T23:49:37.633Z,97134.84
2023-01-02T23:54:39.929Z,97170.91
2023-01-02T23:59:42.545Z,97166.63
